createdAt,value
2016-03-17T00:00:10.540Z,22.79
2016-03-17T00:01:10.543Z,22.81
2016-03-17T00:02:10.624Z,22.73
2016-03-17T00:03:10.533Z,22.79
2016-03-17T00:04:10.379Z,22.82
2016-03-17T00:05:10.539Z,22.71
2016-03-17T00:06:10.541Z,22.71
2016-03-17T00:07:10.544Z,22.76
2016-03-17T00:08:10.546Z,22.78
2016-03-17T00:09:10.549Z,22.81
2016-03-17T00:10:10.536Z,22.78
2016-03-17T00:11:10.538Z,22.82
2016-03-17T00:12:10.541Z,22.75
2016-03-17T00:13:10.544Z,22.75
2016-03-17T00:14:10.547Z,22.76
2016-03-17T00:15:10.549Z,22.85
2016-03-17T00:16:10.552Z,22.86
2016-03-17T00:17:10.399Z,22.92
2016-03-17T00:18:10.541Z,22.89
2016-03-17T00:19:10.545Z,23.03
2016-03-17T00:20:10.563Z,23.03
2016-03-17T00:21:10.535Z,22.99
2016-03-17T00:22:10.553Z,23.01
2016-03-17T00:23:10.540Z,23.01
2016-03-17T00:24:10.543Z,23.07
2016-03-17T00:25:10.561Z,23.03
2016-03-17T00:26:10.548Z,23.18
2016-03-17T00:27:10.550Z,23.14
2016-03-17T00:28:10.553Z,23.12
2016-03-17T00:29:10.540Z,23.1
2016-03-17T00:30:10.559Z,23.19
2016-03-17T00:31:10.546Z,23.14
2016-03-17T00:32:10.595Z,23.24
2016-03-17T00:33:10.536Z,23.21
2016-03-17T00:34:10.538Z,23.12
2016-03-17T00:35:10.541Z,23.15
2016-03-17T00:36:10.544Z,23.18
2016-03-17T00:37:10.547Z,23.18
2016-03-17T00:38:10.550Z,23.18
2016-03-17T00:39:10.552Z,23.19
2016-03-17T00:40:10.539Z,23.16
2016-03-17T00:41:10.541Z,23.14
2016-03-17T00:43:54.690Z,23.14
2016-03-17T00:44:54.686Z,23.1
2016-03-17T00:45:54.688Z,23.07
2016-03-17T00:46:54.691Z,23.07
2016-03-17T00:47:54.694Z,23.12
2016-03-17T00:48:54.681Z,23.16
2016-03-17T00:49:54.684Z,23.14
2016-03-17T00:50:54.686Z,23.15
2016-03-17T00:51:54.705Z,23.1
2016-03-17T00:52:54.708Z,23.12
2016-03-17T00:53:54.694Z,23.1
2016-03-17T00:54:54.697Z,23.06
2016-03-17T00:55:54.684Z,23.18
2016-03-17T00:56:54.687Z,23.04
2016-03-17T00:57:54.689Z,23.12
2016-03-17T00:58:54.692Z,23.14
2016-03-17T00:59:54.695Z,22.99
2016-03-17T01:00:54.697Z,23.04
2016-03-17T01:01:54.685Z,23.14
2016-03-17T01:02:54.688Z,23.12
2016-03-17T01:03:54.690Z,23.04
2016-03-17T01:04:54.693Z,23
2016-03-17T01:05:54.696Z,23.06
2016-03-17T01:06:54.709Z,22.99
2016-03-17T01:07:54.712Z,23.03
2016-03-17T01:08:54.699Z,22.97
2016-03-17T01:09:54.701Z,23.01
2016-03-17T01:10:54.688Z,23.01
2016-03-17T01:11:54.691Z,22.99
2016-03-17T01:12:54.694Z,22.99
2016-03-17T01:13:54.696Z,22.97
2016-03-17T01:14:54.699Z,23
2016-03-17T01:15:54.701Z,23.03
2016-03-17T01:16:54.705Z,23.03
2016-03-17T01:17:54.692Z,22.92
2016-03-17T01:18:54.710Z,22.96
2016-03-17T01:19:54.698Z,23.01
2016-03-17T01:20:54.715Z,22.89
2016-03-17T01:21:54.703Z,22.99
2016-03-17T01:22:54.705Z,22.94
2016-03-17T01:23:54.708Z,22.92
2016-03-17T01:24:54.711Z,22.88
2016-03-17T01:25:54.698Z,22.89
2016-03-17T01:26:54.716Z,22.99
2016-03-17T01:27:54.687Z,22.94
2016-03-17T01:28:54.706Z,22.91
2016-03-17T01:29:54.692Z,23.01
2016-03-17T01:30:54.695Z,22.97
2016-03-17T01:31:54.697Z,22.92
2016-03-17T01:32:54.700Z,23.01
2016-03-17T01:33:54.703Z,22.94
2016-03-17T01:34:54.705Z,23
2016-03-17T01:35:54.708Z,22.96
2016-03-17T01:36:54.711Z,22.97
2016-03-17T01:37:54.699Z,23.03
2016-03-17T01:38:54.702Z,23
2016-03-17T01:39:54.736Z,23.03
2016-03-17T01:40:54.707Z,23
2016-03-17T01:41:54.710Z,23
2016-03-17T01:42:54.697Z,22.99
2016-03-17T01:43:54.699Z,22.94
2016-03-17T01:44:54.702Z,22.94
2016-03-17T01:45:54.705Z,22.92
2016-03-17T01:46:54.707Z,22.85
2016-03-17T01:47:54.695Z,22.89
2016-03-17T01:48:54.697Z,22.99
2016-03-17T01:49:54.700Z,22.91
2016-03-17T01:50:54.703Z,22.81
2016-03-17T01:51:54.706Z,22.85
2016-03-17T01:52:54.709Z,22.79
2016-03-17T01:53:54.711Z,22.85
2016-03-17T01:54:54.698Z,22.86
2016-03-17T01:55:54.701Z,22.79
2016-03-17T01:56:54.703Z,22.86
2016-03-17T01:57:54.706Z,22.82
2016-03-17T01:58:54.708Z,22.88
2016-03-17T01:59:54.712Z,22.84
2016-03-17T02:00:54.714Z,22.85
2016-03-17T02:01:54.701Z,22.86
2016-03-17T02:02:54.703Z,22.88
2016-03-17T02:03:54.706Z,22.86
2016-03-17T02:04:54.708Z,22.88
2016-03-17T02:05:54.696Z,22.89
2016-03-17T02:06:54.714Z,22.94
2016-03-17T02:07:54.716Z,22.99
2016-03-17T02:08:54.704Z,22.88
2016-03-17T02:09:54.691Z,22.96
2016-03-17T02:10:54.725Z,22.92
2016-03-17T02:11:54.696Z,22.85
2016-03-17T02:12:54.716Z,22.89
2016-03-17T02:13:54.718Z,22.91
2016-03-17T02:14:54.705Z,22.82
2016-03-17T02:15:54.708Z,22.92
2016-03-17T02:16:54.710Z,22.92
2016-03-17T02:17:54.744Z,22.91
2016-03-17T02:18:54.699Z,22.84
2016-03-17T02:19:54.702Z,22.88
2016-03-17T02:20:54.705Z,22.88
2016-03-17T02:21:54.723Z,22.82
2016-03-17T02:22:54.711Z,22.78
2016-03-17T02:23:54.713Z,22.88
2016-03-17T02:24:54.701Z,22.89
2016-03-17T02:25:54.704Z,22.85
2016-03-17T02:26:54.706Z,22.86
2016-03-17T02:27:54.709Z,22.78
2016-03-17T02:28:54.711Z,22.81
2016-03-17T02:29:54.714Z,22.79
2016-03-17T02:30:54.717Z,22.76
2016-03-17T02:31:54.720Z,22.75
2016-03-17T02:32:54.706Z,22.73
2016-03-17T02:33:54.740Z,22.78
2016-03-17T02:34:54.711Z,22.7
2016-03-17T02:35:54.714Z,22.75
2016-03-17T02:36:54.561Z,22.78
2016-03-17T02:37:54.720Z,22.76
2016-03-17T02:38:54.723Z,22.79
2016-03-17T02:39:54.710Z,22.76
2016-03-17T02:40:54.713Z,22.76
2016-03-17T02:41:54.699Z,22.79
2016-03-17T02:42:54.718Z,22.78
2016-03-17T02:43:54.705Z,22.76
2016-03-17T02:44:54.707Z,22.82
2016-03-17T02:45:54.710Z,22.75
2016-03-17T02:46:54.713Z,22.82
2016-03-17T02:47:54.716Z,22.79
2016-03-17T02:48:54.718Z,22.84
2016-03-17T02:49:54.705Z,22.89
2016-03-17T02:50:54.708Z,22.85
2016-03-17T02:51:54.710Z,22.89
2016-03-17T02:52:54.714Z,22.91
2016-03-17T02:53:54.716Z,22.94
2016-03-17T02:54:54.719Z,22.88
2016-03-17T02:55:54.721Z,22.86
2016-03-17T02:56:54.709Z,22.84
2016-03-17T02:57:54.711Z,22.85
2016-03-17T02:58:54.730Z,22.82
2016-03-17T02:59:54.717Z,22.85
2016-03-17T03:00:54.703Z,22.88
2016-03-17T03:01:54.722Z,22.86
2016-03-17T03:02:54.709Z,22.82
2016-03-17T03:03:54.728Z,22.88
2016-03-17T03:04:54.731Z,22.86
2016-03-17T03:05:54.717Z,22.85
2016-03-17T03:06:54.767Z,22.82
2016-03-17T03:07:54.707Z,22.84
2016-03-17T03:08:54.710Z,22.88
2016-03-17T03:09:54.758Z,22.88
2016-03-17T03:10:54.714Z,22.84
2016-03-17T03:11:54.717Z,22.82
2016-03-17T03:12:54.720Z,22.89
2016-03-17T03:13:54.707Z,22.88
2016-03-17T03:14:54.710Z,22.85
2016-03-17T03:15:54.712Z,22.89
2016-03-17T03:16:54.715Z,22.88
2016-03-17T03:17:54.718Z,22.91
2016-03-17T03:18:54.721Z,22.84
2016-03-17T03:19:54.723Z,22.82
2016-03-17T03:20:54.710Z,22.89
2016-03-17T03:21:54.713Z,22.85
2016-03-17T03:22:54.716Z,22.86
2016-03-17T03:23:54.719Z,22.85
2016-03-17T03:24:54.722Z,22.81
2016-03-17T03:25:54.724Z,22.86
2016-03-17T03:26:54.837Z,22.88
2016-03-17T03:27:54.714Z,22.88
2016-03-17T03:28:54.748Z,22.89
2016-03-17T03:29:54.720Z,22.81
2016-03-17T03:30:54.706Z,22.84
2016-03-17T03:31:54.725Z,22.76
2016-03-17T03:32:54.633Z,22.79
2016-03-17T03:33:54.714Z,22.88
2016-03-17T03:34:54.717Z,22.82
2016-03-17T03:35:54.720Z,22.76
2016-03-17T03:36:54.723Z,22.73
2016-03-17T03:37:54.697Z,22.73
2016-03-17T03:38:54.687Z,22.76
2016-03-17T03:39:54.522Z,22.78
2016-03-17T03:40:54.668Z,22.7
2016-03-17T03:41:54.658Z,22.7
2016-03-17T03:42:54.657Z,22.73
2016-03-17T03:43:54.640Z,22.78
2016-03-17T03:44:54.639Z,22.76
2016-03-17T03:45:54.637Z,22.79
2016-03-17T03:46:54.635Z,22.7
2016-03-17T03:47:54.559Z,22.64
2016-03-17T03:48:54.653Z,22.67
2016-03-17T03:49:54.623Z,22.73
2016-03-17T03:50:54.624Z,22.73
2016-03-17T03:51:54.626Z,22.63
2016-03-17T03:52:54.628Z,22.67
2016-03-17T03:53:54.630Z,22.64
2016-03-17T03:54:54.631Z,22.57
2016-03-17T03:55:54.634Z,22.71
2016-03-17T03:56:54.619Z,22.55
2016-03-17T03:57:54.622Z,22.69
2016-03-17T03:58:54.625Z,22.64
2016-03-17T03:59:54.628Z,22.63
2016-03-17T04:00:54.630Z,22.55
2016-03-17T04:01:54.633Z,22.67
2016-03-17T04:02:54.885Z,22.67
2016-03-17T04:03:54.623Z,22.67
2016-03-17T04:04:54.640Z,22.59
2016-03-17T04:05:54.628Z,22.6
2016-03-17T04:06:54.615Z,22.64
2016-03-17T04:07:54.617Z,22.66
2016-03-17T04:08:54.620Z,22.63
2016-03-17T04:09:54.623Z,22.57
2016-03-17T04:10:54.626Z,22.59
2016-03-17T04:11:54.629Z,22.66
2016-03-17T04:12:54.616Z,22.63
2016-03-17T04:13:54.619Z,22.7
2016-03-17T04:14:54.622Z,22.63
2016-03-17T04:15:54.624Z,22.6
2016-03-17T04:16:54.830Z,22.66
2016-03-17T04:17:54.598Z,22.79
2016-03-17T04:18:54.616Z,22.64
2016-03-17T04:19:54.635Z,22.63
2016-03-17T04:20:54.637Z,22.64
2016-03-17T04:21:54.624Z,22.75
2016-03-17T04:22:54.643Z,22.71
2016-03-17T04:23:54.646Z,22.76
2016-03-17T04:24:54.617Z,22.75
2016-03-17T04:25:54.635Z,22.78
2016-03-17T04:26:54.622Z,22.7
2016-03-17T04:27:54.625Z,22.7
2016-03-17T04:28:54.628Z,22.67
2016-03-17T04:29:54.630Z,22.76
2016-03-17T04:30:54.633Z,22.78
2016-03-17T04:31:54.635Z,22.73
2016-03-17T04:32:54.670Z,22.63
2016-03-17T04:33:54.625Z,22.75
2016-03-17T04:34:54.471Z,22.75
2016-03-17T04:35:54.646Z,22.78
2016-03-17T04:36:54.976Z,22.73
2016-03-17T04:37:54.620Z,22.78
2016-03-17T04:39:26.107Z,22.67
2016-03-17T04:39:54.626Z,22.73
2016-03-17T04:40:54.629Z,22.73
2016-03-17T04:41:54.632Z,22.69
2016-03-17T04:42:54.728Z,22.73
2016-03-17T04:43:54.637Z,22.66
2016-03-17T04:44:54.780Z,22.71
2016-03-17T04:45:54.658Z,22.7
2016-03-17T04:46:54.629Z,22.61
2016-03-17T04:47:54.804Z,22.64
2016-03-17T04:48:54.634Z,22.7
2016-03-17T04:49:54.622Z,22.64
2016-03-17T04:50:54.639Z,22.6
2016-03-17T04:51:54.627Z,22.57
2016-03-17T04:52:54.629Z,22.67
2016-03-17T04:53:54.647Z,22.54
2016-03-17T04:54:54.619Z,22.7
2016-03-17T04:55:54.622Z,22.64
2016-03-17T04:56:54.624Z,22.66
2016-03-17T04:57:54.847Z,22.61
2016-03-17T04:58:54.630Z,22.69
2016-03-17T04:59:54.633Z,22.61
2016-03-17T05:00:54.635Z,22.59
2016-03-17T05:01:54.857Z,22.59
2016-03-17T05:02:54.704Z,22.64
2016-03-17T05:03:54.628Z,22.63
2016-03-17T05:04:54.615Z,22.6
2016-03-17T05:05:54.712Z,22.64
2016-03-17T05:06:54.636Z,22.61
2016-03-17T05:07:54.639Z,22.66
2016-03-17T05:08:54.625Z,22.6
2016-03-17T05:09:54.769Z,22.64
2016-03-17T05:10:54.631Z,22.64
2016-03-17T05:11:54.618Z,22.64
2016-03-17T05:12:54.637Z,22.6
2016-03-17T05:13:54.624Z,22.6
2016-03-17T05:14:54.626Z,22.57
2016-03-17T05:15:54.628Z,22.64
2016-03-17T05:16:54.695Z,22.6
2016-03-17T05:17:54.664Z,22.67
2016-03-17T05:18:54.619Z,22.64
2016-03-17T05:19:54.622Z,22.66
2016-03-17T05:20:57.736Z,22.66
2016-03-17T05:21:54.627Z,22.59
2016-03-17T05:22:54.630Z,22.69
2016-03-17T05:23:54.633Z,22.59
2016-03-17T05:24:54.620Z,22.6
2016-03-17T05:25:54.622Z,22.7
2016-03-17T05:26:54.625Z,22.63
2016-03-17T05:27:54.627Z,22.75
2016-03-17T05:28:54.630Z,22.63
2016-03-17T05:29:54.633Z,22.63
2016-03-17T05:30:54.635Z,22.66
2016-03-17T05:31:54.638Z,22.7
2016-03-17T05:32:54.624Z,22.64
2016-03-17T05:33:54.613Z,22.59
2016-03-17T05:34:54.615Z,22.6
2016-03-17T05:35:54.618Z,22.67
2016-03-17T05:36:54.621Z,22.64
2016-03-17T05:37:54.623Z,22.61
2016-03-17T05:38:54.641Z,22.7
2016-03-17T05:39:54.644Z,22.64
2016-03-17T05:40:54.615Z,22.66
2016-03-17T05:41:54.618Z,22.6
2016-03-17T05:42:54.621Z,22.64
2016-03-17T05:43:54.624Z,22.63
2016-03-17T05:44:54.626Z,22.61
2016-03-17T05:45:54.629Z,22.63
2016-03-17T05:46:54.616Z,22.63
2016-03-17T05:47:54.619Z,22.73
2016-03-17T05:48:54.622Z,22.66
2016-03-17T05:49:54.624Z,22.67
2016-03-17T05:50:54.627Z,22.63
2016-03-17T05:51:54.629Z,22.63
2016-03-17T05:52:54.647Z,22.66
2016-03-17T05:53:54.635Z,22.7
2016-03-17T05:54:54.622Z,22.63
2016-03-17T05:55:54.625Z,22.6
2016-03-17T05:56:54.627Z,22.6
2016-03-17T05:57:54.630Z,22.59
2016-03-17T05:58:54.632Z,22.64
2016-03-17T05:59:54.635Z,22.64
2016-03-17T06:00:54.638Z,22.67
2016-03-17T06:01:54.625Z,22.61
2016-03-17T06:02:54.628Z,22.64
2016-03-17T06:03:54.630Z,22.64
2016-03-17T06:04:54.633Z,22.67
2016-03-17T06:05:54.636Z,22.71
2016-03-17T06:06:54.624Z,22.63
2016-03-17T06:07:54.626Z,22.64
2016-03-17T06:08:54.629Z,22.63
2016-03-17T06:09:54.928Z,22.69
2016-03-17T06:10:54.618Z,22.6
2016-03-17T06:11:54.621Z,22.66
2016-03-17T06:12:54.686Z,22.64
2016-03-17T06:13:54.626Z,22.61
2016-03-17T06:14:54.628Z,22.67
2016-03-17T06:15:54.476Z,22.67
2016-03-17T06:16:54.618Z,22.63
2016-03-17T06:17:54.621Z,22.59
2016-03-17T06:18:54.640Z,22.63
2016-03-17T06:19:54.986Z,22.59
2016-03-17T06:20:54.629Z,22.61
2016-03-17T06:21:54.617Z,22.67
2016-03-17T06:22:54.634Z,22.7
2016-03-17T06:23:54.622Z,22.69
2016-03-17T06:24:54.624Z,22.66
2016-03-17T06:25:54.611Z,22.71
2016-03-17T06:26:54.629Z,22.63
2016-03-17T06:27:54.616Z,22.66
2016-03-17T06:28:54.635Z,22.63
2016-03-17T06:29:54.637Z,22.69
2016-03-17T06:30:54.625Z,22.66
2016-03-17T06:31:54.627Z,22.7
2016-03-17T06:32:54.661Z,22.64
2016-03-17T06:33:54.758Z,22.7
2016-03-17T06:34:54.621Z,22.61
2016-03-17T06:35:54.623Z,22.69
2016-03-17T06:36:54.967Z,22.69
2016-03-17T06:37:54.671Z,22.75
2016-03-17T06:38:54.642Z,22.64
2016-03-17T06:39:57.922Z,22.63
2016-03-17T06:40:54.640Z,22.75
2016-03-17T06:41:54.611Z,22.64
2016-03-17T06:42:54.614Z,22.69
2016-03-17T06:43:54.633Z,22.7
2016-03-17T06:44:54.635Z,22.76
2016-03-17T06:45:54.482Z,22.75
2016-03-17T06:46:54.719Z,22.7
2016-03-17T06:47:54.471Z,22.73
2016-03-17T06:48:54.630Z,22.73
2016-03-17T06:49:54.699Z,22.79
2016-03-17T06:50:54.624Z,22.79
2016-03-17T06:51:54.626Z,22.75
2016-03-17T06:52:54.738Z,22.71
2016-03-17T06:53:54.632Z,22.73
2016-03-17T06:54:54.634Z,22.75
2016-03-17T06:55:54.621Z,22.76
2016-03-17T06:56:54.623Z,22.71
2016-03-17T06:57:57.673Z,22.75
2016-03-17T06:58:54.645Z,22.71
2016-03-17T06:59:54.615Z,22.81
2016-03-17T07:00:54.697Z,22.75
2016-03-17T07:01:54.621Z,22.75
2016-03-17T07:02:54.639Z,22.76
2016-03-17T07:03:54.611Z,22.79
2016-03-17T07:04:54.629Z,22.73
2016-03-17T07:05:54.617Z,22.78
2016-03-17T07:06:54.666Z,22.73
2016-03-17T07:07:54.622Z,22.73
2016-03-17T07:08:54.734Z,22.81
2016-03-17T07:09:54.628Z,22.76
2016-03-17T07:10:54.615Z,22.78
2016-03-17T07:11:55.055Z,22.73
2016-03-17T07:12:54.620Z,22.71
2016-03-17T07:13:54.623Z,22.73
2016-03-17T07:14:55.078Z,22.79
2016-03-17T07:15:54.612Z,22.81
2016-03-17T07:16:54.646Z,22.75
2016-03-17T07:17:54.633Z,22.75
2016-03-17T07:18:54.620Z,22.69
2016-03-17T07:19:54.639Z,22.78
2016-03-17T07:20:54.610Z,22.66
2016-03-17T07:21:54.628Z,22.63
2016-03-17T07:22:54.615Z,22.76
2016-03-17T07:23:54.618Z,22.75
2016-03-17T07:24:54.621Z,22.7
2016-03-17T07:25:54.624Z,22.73
2016-03-17T07:26:54.627Z,22.76
2016-03-17T07:27:54.630Z,22.79
2016-03-17T07:28:54.616Z,22.69
2016-03-17T07:29:54.619Z,22.75
2016-03-17T07:30:54.621Z,22.71
2016-03-17T07:31:54.624Z,22.81
2016-03-17T07:32:54.612Z,22.73
2016-03-17T07:33:54.630Z,22.75
2016-03-17T07:34:54.632Z,22.76
2016-03-17T07:35:54.619Z,22.76
2016-03-17T07:36:54.653Z,22.78
2016-03-17T07:37:54.625Z,22.76
2016-03-17T07:38:54.628Z,22.79
2016-03-17T07:39:54.631Z,22.73
2016-03-17T07:40:54.617Z,22.78
2016-03-17T07:41:54.635Z,22.7
2016-03-17T07:42:54.606Z,22.78
2016-03-17T07:43:54.625Z,22.76
2016-03-17T07:44:54.628Z,22.75
2016-03-17T07:45:54.615Z,22.82
2016-03-17T07:46:54.680Z,22.79
2016-03-17T07:47:54.636Z,22.73
2016-03-17T07:48:54.623Z,22.84
2016-03-17T07:49:54.625Z,22.84
2016-03-17T07:50:54.613Z,22.86
2016-03-17T07:51:54.616Z,22.79
2016-03-17T07:52:55.040Z,22.85
2016-03-17T07:53:54.621Z,22.89
2016-03-17T07:54:54.623Z,22.84
2016-03-17T07:55:54.674Z,22.85
2016-03-17T07:56:54.566Z,22.85
2016-03-17T07:57:54.616Z,22.86
2016-03-17T07:58:54.619Z,22.86
2016-03-17T07:59:54.621Z,22.91
2016-03-17T08:00:54.999Z,22.86
2016-03-17T08:01:54.626Z,22.82
2016-03-17T08:02:54.629Z,22.85
2016-03-17T08:03:54.726Z,22.88
2016-03-17T08:04:54.635Z,22.79
2016-03-17T08:05:54.637Z,22.85
2016-03-17T08:06:54.817Z,22.84
2016-03-17T08:07:54.632Z,22.86
2016-03-17T08:08:54.634Z,22.86
2016-03-17T08:09:54.622Z,22.89
2016-03-17T08:10:54.781Z,22.84
2016-03-17T08:11:54.628Z,22.91
2016-03-17T08:12:54.631Z,22.91
2016-03-17T08:13:54.742Z,22.96
2016-03-17T08:14:54.620Z,22.91
2016-03-17T08:15:54.639Z,22.88
2016-03-17T08:16:54.625Z,22.89
2016-03-17T08:17:54.644Z,22.91
2016-03-17T08:18:54.614Z,22.85
2016-03-17T08:19:54.650Z,22.78
2016-03-17T08:20:54.620Z,22.85
2016-03-17T08:21:54.483Z,22.88
2016-03-17T08:22:54.625Z,22.84
2016-03-17T08:23:54.691Z,22.89
2016-03-17T08:24:54.630Z,22.85
2016-03-17T08:25:54.649Z,22.78
2016-03-17T08:26:54.621Z,22.88
2016-03-17T08:27:54.624Z,22.85
2016-03-17T08:28:54.627Z,22.86
2016-03-17T08:29:54.629Z,22.84
2016-03-17T08:30:54.741Z,22.89
2016-03-17T08:31:54.634Z,22.89
2016-03-17T08:32:54.637Z,22.84
2016-03-17T08:33:54.640Z,22.84
2016-03-17T08:34:54.627Z,22.86
2016-03-17T08:35:54.646Z,22.82
2016-03-17T08:36:54.649Z,22.81
2016-03-17T08:37:54.635Z,22.84
2016-03-17T08:38:54.623Z,22.76
2016-03-17T08:39:54.626Z,22.73
2016-03-17T08:40:54.628Z,22.73
2016-03-17T08:41:54.631Z,22.76
2016-03-17T08:42:54.633Z,22.79
2016-03-17T08:43:54.635Z,22.75
2016-03-17T08:44:54.623Z,22.75
2016-03-17T08:45:54.625Z,22.82
2016-03-17T08:46:54.612Z,22.69
2016-03-17T08:47:54.630Z,22.81
2016-03-17T08:48:54.727Z,22.73
2016-03-17T08:49:54.620Z,22.61
2016-03-17T08:50:54.623Z,22.64
2016-03-17T08:51:54.625Z,22.52
2016-03-17T08:52:54.644Z,22.45
2016-03-17T08:53:54.631Z,22.45
2016-03-17T08:54:54.634Z,22.42
2016-03-17T08:55:54.621Z,22.41
2016-03-17T08:56:54.639Z,22.49
2016-03-17T08:57:54.626Z,22.41
2016-03-17T08:58:54.629Z,22.39
2016-03-17T08:59:54.632Z,22.41
2016-03-17T09:00:54.635Z,22.44
2016-03-17T09:01:54.621Z,22.49
2016-03-17T09:02:54.624Z,22.48
2016-03-17T09:03:54.657Z,22.44
2016-03-17T09:04:54.646Z,22.44
2016-03-17T09:05:54.616Z,22.54
2016-03-17T09:06:54.624Z,22.54
2016-03-17T09:07:54.626Z,22.52
2016-03-17T09:08:54.615Z,22.57
2016-03-17T09:09:54.632Z,22.52
2016-03-17T09:10:54.620Z,22.54
2016-03-17T09:11:54.622Z,22.61
2016-03-17T09:12:54.640Z,22.51
2016-03-17T09:13:54.612Z,22.54
2016-03-17T09:14:54.615Z,22.64
2016-03-17T09:15:54.617Z,22.61
2016-03-17T09:16:54.620Z,22.61
2016-03-17T09:17:54.622Z,22.71
2016-03-17T09:18:54.672Z,22.78
2016-03-17T09:19:56.440Z,22.75
2016-03-17T09:20:54.458Z,22.7
2016-03-17T09:21:54.649Z,22.76
2016-03-17T09:22:55.588Z,22.86
2016-03-17T09:23:54.623Z,22.88
2016-03-17T09:24:54.610Z,22.91
2016-03-17T09:25:57.175Z,22.86
2016-03-17T09:26:54.603Z,22.94
2016-03-17T09:27:54.622Z,22.97
2016-03-17T09:28:54.625Z,23.01
2016-03-17T09:29:54.628Z,23.03
2016-03-17T09:30:54.645Z,23.04
2016-03-17T09:31:54.633Z,23.03
2016-03-17T09:32:54.620Z,23.01
2016-03-17T09:33:54.529Z,23
2016-03-17T09:34:54.625Z,23.01
2016-03-17T09:35:54.612Z,22.97
2016-03-17T09:36:54.631Z,23
2016-03-17T09:37:54.633Z,23.09
2016-03-17T09:38:54.620Z,23.12
2016-03-17T09:39:54.623Z,23.06
2016-03-17T09:40:54.642Z,23
2016-03-17T09:41:54.613Z,23.16
2016-03-17T09:42:54.616Z,23.14
2016-03-17T09:43:54.633Z,23.03
2016-03-17T09:44:54.621Z,23.09
2016-03-17T09:45:54.624Z,23.09
2016-03-17T09:46:54.610Z,23.09
2016-03-17T09:47:54.629Z,23.12
2016-03-17T09:48:54.632Z,23.1
2016-03-17T09:49:54.619Z,23.12
2016-03-17T09:50:54.621Z,23.18
2016-03-17T09:51:54.640Z,23.19
2016-03-17T09:52:54.627Z,23.24
2016-03-17T09:53:54.677Z,23.21
2016-03-17T09:54:54.618Z,23.26
2016-03-17T09:55:54.634Z,23.15
2016-03-17T09:56:54.637Z,23.22
2016-03-17T09:57:54.626Z,23.16
2016-03-17T09:58:54.612Z,23.16
2016-03-17T09:59:54.615Z,23.15
2016-03-17T10:00:54.617Z,23.19
2016-03-17T10:01:54.620Z,23.14
2016-03-17T10:02:54.639Z,23.12
2016-03-17T10:03:54.625Z,23.15
2016-03-17T10:04:54.628Z,23.1
2016-03-17T10:05:54.615Z,23.1
2016-03-17T10:06:54.617Z,23.15
2016-03-17T10:07:54.620Z,23
2016-03-17T10:08:54.608Z,23
2016-03-17T10:09:54.626Z,23
2016-03-17T10:10:54.628Z,23
2016-03-17T10:11:54.630Z,22.96
2016-03-17T10:12:54.634Z,22.99
2016-03-17T10:13:54.622Z,22.99
2016-03-17T10:14:54.623Z,23.01
2016-03-17T10:15:54.627Z,23.03
2016-03-17T10:16:54.644Z,23.06
2016-03-17T10:17:54.632Z,22.99
2016-03-17T10:18:54.634Z,22.92
2016-03-17T10:19:54.637Z,23
2016-03-17T10:20:54.624Z,22.99
2016-03-17T10:21:54.627Z,22.92
2016-03-17T10:22:54.645Z,22.94
2016-03-17T10:23:54.648Z,22.99
2016-03-17T10:24:54.634Z,22.91
2016-03-17T10:25:54.637Z,22.94
2016-03-17T10:26:54.640Z,22.82
2016-03-17T10:27:54.643Z,22.85
2016-03-17T10:28:54.630Z,22.88
2016-03-17T10:29:54.632Z,22.85
2016-03-17T10:30:54.635Z,22.88
2016-03-17T10:31:54.622Z,22.89
2016-03-17T10:32:54.626Z,22.85
2016-03-17T10:33:54.628Z,22.78
2016-03-17T10:34:54.630Z,22.86
2016-03-17T10:35:54.633Z,22.85
2016-03-17T10:36:54.636Z,22.89
2016-03-17T10:37:54.639Z,22.78
2016-03-17T10:38:54.626Z,22.82
2016-03-17T10:39:54.659Z,22.86
2016-03-17T10:40:54.631Z,22.89
2016-03-17T10:41:54.649Z,22.99
2016-03-17T10:42:54.636Z,23.06
2016-03-17T10:43:54.624Z,23.03
2016-03-17T10:44:54.642Z,22.99
2016-03-17T10:45:54.629Z,23.06
2016-03-17T10:46:54.647Z,23.12
2016-03-17T10:47:54.635Z,23.1
2016-03-17T10:48:54.653Z,23.26
2016-03-17T10:49:54.640Z,23.21
2016-03-17T10:50:54.627Z,23.21
2016-03-17T10:51:54.629Z,23.22
2016-03-17T10:52:54.632Z,23.24
2016-03-17T10:53:54.635Z,23.32
2016-03-17T10:54:54.638Z,23.26
2016-03-17T10:55:54.640Z,23.26
2016-03-17T10:56:54.643Z,23.22
2016-03-17T10:57:54.645Z,23.28
2016-03-17T10:58:54.649Z,23.26
2016-03-17T10:59:54.635Z,23.26
2016-03-17T11:00:54.638Z,23.29
2016-03-17T11:01:54.640Z,23.28
2016-03-17T11:02:54.643Z,23.34
2016-03-17T11:03:54.646Z,23.22
2016-03-17T11:04:54.648Z,23.34
2016-03-17T11:05:54.636Z,23.25
2016-03-17T11:06:54.654Z,23.24
2016-03-17T11:07:54.642Z,23.28
2016-03-17T11:08:54.644Z,23.26
2016-03-17T11:09:54.649Z,23.25
2016-03-17T11:10:54.653Z,23.26
2016-03-17T11:11:54.639Z,23.32
2016-03-17T11:12:54.642Z,23.24
2016-03-17T11:13:54.629Z,23.24
2016-03-17T11:14:54.647Z,23.28
2016-03-17T11:15:54.651Z,23.21
2016-03-17T11:16:54.653Z,23.26
2016-03-17T11:17:54.671Z,23.26
2016-03-17T11:18:54.642Z,23.25
2016-03-17T11:19:54.645Z,23.26
2016-03-17T11:20:54.663Z,23.24
2016-03-17T11:21:54.636Z,23.25
2016-03-17T11:22:54.637Z,23.26
2016-03-17T11:23:54.656Z,23.22
2016-03-17T11:24:54.643Z,23.24
2016-03-17T11:25:54.646Z,23.16
2016-03-17T11:26:54.648Z,23.19
2016-03-17T11:27:54.652Z,23.26
2016-03-17T11:28:54.654Z,23.15
2016-03-17T11:29:54.657Z,23.15
2016-03-17T11:30:54.660Z,23.12
2016-03-17T11:31:54.662Z,23.15
2016-03-17T11:32:54.492Z,23.09
2016-03-17T11:33:54.635Z,23.16
2016-03-17T11:34:54.654Z,23.14
2016-03-17T11:35:54.641Z,23.16
2016-03-17T11:36:54.644Z,23.12
2016-03-17T11:37:54.646Z,23.15
2016-03-17T11:38:54.649Z,23.06
2016-03-17T11:39:54.652Z,23.01
2016-03-17T11:40:54.640Z,23.03
2016-03-17T11:41:54.642Z,23
2016-03-17T11:42:54.645Z,23.03
2016-03-17T11:43:54.647Z,23.03
2016-03-17T11:44:54.650Z,22.99
2016-03-17T11:45:54.653Z,22.99
2016-03-17T11:46:54.656Z,23.03
2016-03-17T11:47:54.658Z,23.06
2016-03-17T11:48:54.645Z,23.01
2016-03-17T11:49:54.648Z,23.07
2016-03-17T11:50:54.650Z,22.99
2016-03-17T11:51:54.638Z,23.06
2016-03-17T11:52:54.656Z,23.03
2016-03-17T11:53:54.658Z,23
2016-03-17T11:54:54.646Z,23
2016-03-17T11:55:54.648Z,22.99
2016-03-17T11:56:54.666Z,23
2016-03-17T11:57:54.654Z,22.99
2016-03-17T11:58:54.657Z,22.97
2016-03-17T11:59:54.675Z,23.01
2016-03-17T12:00:54.651Z,22.96
2016-03-17T12:01:54.654Z,22.97
2016-03-17T12:02:54.640Z,22.99
2016-03-17T12:03:54.643Z,23.03
2016-03-17T12:04:54.646Z,23
2016-03-17T12:05:54.648Z,22.91
2016-03-17T12:06:54.667Z,22.96
2016-03-17T12:07:54.670Z,22.99
2016-03-17T12:08:54.657Z,22.99
2016-03-17T12:09:54.488Z,22.97
2016-03-17T12:10:54.662Z,23
2016-03-17T12:11:54.664Z,23
2016-03-17T12:12:54.652Z,22.97
2016-03-17T12:13:54.656Z,23.01
2016-03-17T12:14:54.658Z,23.07
2016-03-17T12:15:54.644Z,23
2016-03-17T12:16:54.647Z,23
2016-03-17T12:17:54.650Z,23.1
2016-03-17T12:18:54.668Z,23.16
2016-03-17T12:19:54.655Z,23.09
2016-03-17T12:20:54.658Z,23.21
2016-03-17T12:21:54.692Z,23.22
2016-03-17T12:22:54.663Z,23.18
2016-03-17T12:23:54.650Z,23.22
2016-03-17T12:24:54.653Z,23.21
2016-03-17T12:25:54.671Z,23.18
2016-03-17T12:26:54.658Z,23.21
2016-03-17T12:27:54.661Z,23.19
2016-03-17T12:28:54.663Z,23.18
2016-03-17T12:29:54.651Z,23.21
2016-03-17T12:30:54.669Z,23.22
2016-03-17T12:31:54.657Z,23.22
2016-03-17T12:32:54.659Z,23.25
2016-03-17T12:33:54.662Z,23.18
2016-03-17T12:34:54.664Z,23.26
2016-03-17T12:35:54.651Z,23.22
2016-03-17T12:36:54.654Z,23.21
2016-03-17T12:37:54.657Z,23.19
2016-03-17T12:38:54.659Z,23.21
2016-03-17T12:39:54.678Z,23.32
2016-03-17T12:40:54.665Z,23.24
2016-03-17T12:41:54.651Z,23.16
2016-03-17T12:42:54.655Z,23.15
2016-03-17T12:43:54.650Z,23.19
2016-03-17T12:44:54.641Z,23.14
2016-03-17T12:45:54.631Z,23.16
2016-03-17T12:46:54.621Z,23.14
2016-03-17T12:47:54.611Z,23.14
2016-03-17T12:48:54.607Z,23.09
2016-03-17T12:49:54.590Z,23.15
2016-03-17T12:50:54.589Z,23.16
2016-03-17T12:51:54.587Z,23.14
2016-03-17T12:52:54.585Z,23.14
2016-03-17T12:53:54.569Z,23.16
2016-03-17T12:54:54.570Z,23.1
2016-03-17T12:55:54.571Z,23.06
2016-03-17T12:56:54.589Z,22.99
2016-03-17T12:57:54.573Z,23.04